Time;durP1;ratioP1;P1;durP2;ratioP2;P2;SDS_P1;SDS_P2;PMS_P1;PMS_P2;Temp;Humidity;BMP_temperature;BMP_pressure;BME280_temperature;BME280_humidity;BME280_pressure;Samples;Min_cycle;Max_cycle;Signal;HPM_P1;HPM_P2
2023/08/15 00:00:00;;;;;;;4.73;2.70;;;;;;;;;;619860;23;1393;-79
2023/08/15 00:00:16;;;;;;;4.88;2.80;;;;;;;;;;622650;23;1297;-79
2023/08/15 00:00:32;;;;;;;4.50;2.78;;;;;;;;;;622637;23;1390;-79
2023/08/15 00:00:48;;;;;;;4.45;2.70;;;;;;;;;;622388;23;1184;-79
2023/08/15 00:01:03;;;;;;;5.53;2.70;;;;;;;;;;623280;23;1265;-79
2023/08/15 00:01:19;;;;;;;5.27;2.70;;;;;;;;;;622964;23;1296;-80
2023/08/15 00:01:35;;;;;;;3.72;2.50;;;;;;;;;;625713;23;1917;-79
2023/08/15 00:01:51;;;;;;;4.10;2.70;;;;;;;;;;623207;23;1521;-79
2023/08/15 00:02:07;;;;;;;4.72;2.85;;;;;;;;;;623342;23;835;-80
2023/08/15 00:02:23;;;;;;;5.38;2.90;;;;;;;;;;622996;23;824;-79
2023/08/15 00:02:38;;;;;;;4.70;2.70;;;;;;;;;;623118;23;1181;-80
2023/08/15 00:02:54;;;;;;;5.95;2.90;;;;;;;;;;620478;23;1309;-79
2023/08/15 00:03:10;;;;;;;6.25;2.95;;;;;;;;;;623043;23;1261;-79
2023/08/15 00:03:26;;;;;;;4.15;2.67;;;;;;;;;;622875;23;1220;-79
2023/08/15 00:03:41;;;;;;;4.53;2.80;;;;;;;;;;623611;23;840;-80
2023/08/15 00:03:57;;;;;;;5.57;2.90;;;;;;;;;;622646;23;1264;-80
2023/08/15 00:04:13;;;;;;;4.25;2.67;;;;;;;;;;623068;23;1507;-79
2023/08/15 00:04:28;;;;;;;4.25;2.70;;;;;;;;;;625249;23;1237;-79
2023/08/15 00:04:44;;;;;;;5.07;2.87;;;;;;;;;;625648;23;1192;-80
2023/08/15 00:05:00;;;;;;;4.40;2.80;;;;;;;;;;622871;23;1240;-79
2023/08/15 00:05:16;;;;;;;4.90;2.78;;;;;;;;;;622579;23;1352;-79
2023/08/15 00:05:31;;;;;;;5.57;2.77;;;;;;;;;;619698;23;1478;-79
2023/08/15 00:05:47;;;;;;;4.82;2.80;;;;;;;;;;617039;23;1383;-79
2023/08/15 00:06:03;;;;;;;3.83;3.00;;;;;;;;;;617472;23;797;-79
2023/08/15 00:06:20;;;;;;;4.93;3.05;;;;;;;;;;620842;23;1341;-79
2023/08/15 00:06:36;;;;;;;5.03;2.88;;;;;;;;;;621198;23;841;-79
2023/08/15 00:06:52;;;;;;;4.00;2.70;;;;;;;;;;620220;23;1322;-79
2023/08/15 00:07:08;;;;;;;3.92;2.63;;;;;;;;;;618505;23;1225;-80
2023/08/15 00:07:23;;;;;;;4.50;2.72;;;;;;;;;;617866;23;1343;-79
2023/08/15 00:07:39;;;;;;;4.47;2.80;;;;;;;;;;620083;23;1512;-79
2023/08/15 00:07:55;;;;;;;3.60;2.55;;;;;;;;;;623236;23;1504;-79
2023/08/15 00:08:11;;;;;;;3.35;2.58;;;;;;;;;;619748;23;1232;-80
2023/08/15 00:08:27;;;;;;;4.67;2.70;;;;;;;;;;620331;23;1430;-79
2023/08/15 00:08:43;;;;;;;7.40;2.88;;;;;;;;;;620741;23;1341;-79
2023/08/15 00:09:00;;;;;;;6.88;2.97;;;;;;;;;;623542;23;1208;-79
2023/08/15 00:09:15;;;;;;;5.47;2.88;;;;;;;;;;623026;23;820;-79
2023/08/15 00:09:31;;;;;;;5.53;2.78;;;;;;;;;;620330;23;1335;-79
2023/08/15 00:09:47;;;;;;;5.40;2.70;;;;;;;;;;622948;23;1318;-79
2023/08/15 00:10:03;;;;;;;5.65;2.70;;;;;;;;;;622752;23;1577;-79
2023/08/15 00:10:19;;;;;;;4.57;2.60;;;;;;;;;;629121;23;1424;-79
2023/08/15 00:10:35;;;;;;;2.97;2.57;;;;;;;;;;626332;23;1173;-80
2023/08/15 00:10:50;;;;;;;3.33;2.80;;;;;;;;;;623133;23;1385;-79
2023/08/15 00:11:06;;;;;;;4.47;2.88;;;;;;;;;;623171;23;1186;-82
2023/08/15 00:11:23;;;;;;;6.22;2.75;;;;;;;;;;623362;23;829;-82
2023/08/15 00:11:39;;;;;;;6.22;2.80;;;;;;;;;;623324;23;1023;-82
2023/08/15 00:11:55;;;;;;;5.07;2.65;;;;;;;;;;625781;23;1204;-82
2023/08/15 00:12:10;;;;;;;4.30;2.70;;;;;;;;;;622880;23;1404;-82
2023/08/15 00:12:26;;;;;;;4.82;2.85;;;;;;;;;;623100;23;1453;-82
2023/08/15 00:12:42;;;;;;;5.80;2.80;;;;;;;;;;622725;23;1288;-81
2023/08/15 00:12:57;;;;;;;6.38;2.78;;;;;;;;;;620857;23;1225;-80
2023/08/15 00:13:13;;;;;;;5.88;2.78;;;;;;;;;;623264;23;903;-80
2023/08/15 00:13:29;;;;;;;6.00;2.70;;;;;;;;;;619977;23;1219;-80
2023/08/15 00:13:44;;;;;;;5.75;2.78;;;;;;;;;;616951;23;1151;-80
2023/08/15 00:14:00;;;;;;;4.40;2.70;;;;;;;;;;617369;23;1401;-80
2023/08/15 00:14:15;;;;;;;4.00;2.45;;;;;;;;;;613912;23;1272;-80
2023/08/15 00:14:31;;;;;;;4.18;2.60;;;;;;;;;;617305;23;1281;-80
2023/08/15 00:14:47;;;;;;;3.88;2.72;;;;;;;;;;619659;23;1283;-80
2023/08/15 00:15:03;;;;;;;3.80;2.80;;;;;;;;;;616946;23;1299;-80
2023/08/15 00:15:19;;;;;;;4.38;2.78;;;;;;;;;;616689;23;1378;-80
2023/08/15 00:15:35;;;;;;;4.70;2.63;;;;;;;;;;616712;23;804;-81
2023/08/15 00:15:50;;;;;;;5.22;2.53;;;;;;;;;;622178;23;1360;-80
2023/08/15 00:16:06;;;;;;;6.43;2.72;;;;;;;;;;625525;23;1537;-80
2023/08/15 00:16:23;;;;;;;5.83;2.70;;;;;;;;;;622868;23;1255;-81
2023/08/15 00:16:38;;;;;;;4.70;2.58;;;;;;;;;;623456;23;1402;-80
2023/08/15 00:16:54;;;;;;;4.53;2.60;;;;;;;;;;622886;23;875;-80
2023/08/15 00:17:11;;;;;;;4.68;2.50;;;;;;;;;;622512;23;1391;-80
2023/08/15 00:17:47;;;;;;;4.57;2.45;;;;;;;;;;619383;23;1123;-80
2023/08/15 00:18:03;;;;;;;4.30;2.67;;;;;;;;;;618471;23;1298;-79
2023/08/15 00:18:19;;;;;;;4.00;2.50;;;;;;;;;;618662;23;1447;-80
2023/08/15 00:18:35;;;;;;;3.95;2.42;;;;;;;;;;618147;23;1245;-80
2023/08/15 00:18:51;;;;;;;5.93;2.50;;;;;;;;;;619693;23;769;-80
2023/08/15 00:19:07;;;;;;;6.50;2.50;;;;;;;;;;619902;23;1272;-80
2023/08/15 00:19:22;;;;;;;3.28;2.40;;;;;;;;;;621267;23;1170;-80
2023/08/15 00:19:39;;;;;;;3.83;2.57;;;;;;;;;;619673;23;1419;-81
2023/08/15 00:19:54;;;;;;;4.47;2.70;;;;;;;;;;619202;23;1230;-80
2023/08/15 00:20:10;;;;;;;3.50;2.60;;;;;;;;;;616385;23;1226;-80
2023/08/15 00:20:26;;;;;;;3.03;2.40;;;;;;;;;;616474;23;1405;-80
2023/08/15 00:20:42;;;;;;;3.92;2.40;;;;;;;;;;613611;23;1274;-80
2023/08/15 00:20:58;;;;;;;4.75;2.58;;;;;;;;;;613975;24;785;-80
2023/08/15 00:21:13;;;;;;;3.35;2.53;;;;;;;;;;613746;24;1210;-80
2023/08/15 00:21:29;;;;;;;4.17;2.60;;;;;;;;;;613746;23;1336;-80
2023/08/15 00:21:45;;;;;;;5.18;2.70;;;;;;;;;;613896;23;1926;-80
2023/08/15 00:22:00;;;;;;;5.13;2.63;;;;;;;;;;613437;23;1368;-80
2023/08/15 00:22:17;;;;;;;6.13;2.67;;;;;;;;;;613862;23;1302;-80
2023/08/15 00:22:33;;;;;;;4.60;2.60;;;;;;;;;;616412;23;1441;-80
2023/08/15 00:22:49;;;;;;;4.40;2.60;;;;;;;;;;613737;23;1406;-80
2023/08/15 00:23:05;;;;;;;4.60;2.70;;;;;;;;;;616585;23;1325;-80
2023/08/15 00:23:41;;;;;;;4.80;2.70;;;;;;;;;;616529;23;1356;-80
2023/08/15 00:23:56;;;;;;;4.43;2.65;;;;;;;;;;616042;23;1251;-80
2023/08/15 00:24:12;;;;;;;5.25;2.58;;;;;;;;;;619720;23;1373;-80
2023/08/15 00:24:28;;;;;;;4.82;2.42;;;;;;;;;;622830;23;1382;-80
2023/08/15 00:24:44;;;;;;;3.97;2.60;;;;;;;;;;622381;23;1477;-80
2023/08/15 00:24:59;;;;;;;4.38;2.78;;;;;;;;;;619437;23;1524;-80
2023/08/15 00:25:15;;;;;;;5.20;2.70;;;;;;;;;;622335;23;1225;-80
2023/08/15 00:25:31;;;;;;;5.78;2.70;;;;;;;;;;619420;23;1253;-80
2023/08/15 00:25:47;;;;;;;3.85;2.47;;;;;;;;;;619430;23;816;-79
2023/08/15 00:26:02;;;;;;;2.60;2.40;;;;;;;;;;619005;23;1271;-80
2023/08/15 00:26:18;;;;;;;2.80;2.50;;;;;;;;;;619191;23;828;-80
2023/08/15 00:26:33;;;;;;;4.63;2.70;;;;;;;;;;620130;23;1185;-80
2023/08/15 00:26:49;;;;;;;4.75;2.60;;;;;;;;;;620453;23;1396;-80
2023/08/15 00:27:07;;;;;;;4.07;2.50;;;;;;;;;;620904;23;1370;-80
2023/08/15 00:27:26;;;;;;;4.03;2.50;;;;;;;;;;623298;23;1144;-80
2023/08/15 00:27:41;;;;;;;3.25;2.40;;;;;;;;;;622733;23;1486;-79
2023/08/15 00:27:57;;;;;;;3.80;2.65;;;;;;;;;;622352;23;1274;-80
2023/08/15 00:28:13;;;;;;;3.83;2.42;;;;;;;;;;619327;23;1495;-80
2023/08/15 00:28:29;;;;;;;3.33;2.42;;;;;;;;;;616296;23;1495;-80
2023/08/15 00:28:44;;;;;;;3.50;2.50;;;;;;;;;;618813;23;1526;-80
2023/08/15 00:29:00;;;;;;;3.83;2.40;;;;;;;;;;619540;23;1388;-80
2023/08/15 00:29:16;;;;;;;3.92;2.42;;;;;;;;;;619242;23;1340;-79
2023/08/15 00:29:32;;;;;;;2.90;2.20;;;;;;;;;;619329;23;1320;-80
2023/08/15 00:29:47;;;;;;;2.88;2.30;;;;;;;;;;622434;23;1245;-80
2023/08/15 00:30:04;;;;;;;3.58;2.40;;;;;;;;;;621010;23;1356;-80
2023/08/15 00:30:20;;;;;;;3.85;2.55;;;;;;;;;;618850;23;1285;-81
2023/08/15 00:30:36;;;;;;;4.00;2.80;;;;;;;;;;618488;23;1261;-80
2023/08/15 00:30:51;;;;;;;4.38;2.65;;;;;;;;;;619071;23;1265;-79
2023/08/15 00:31:07;;;;;;;4.38;2.30;;;;;;;;;;616315;23;1362;-80
2023/08/15 00:31:22;;;;;;;5.10;2.40;;;;;;;;;;618972;23;1284;-80
2023/08/15 00:31:38;;;;;;;5.47;2.60;;;;;;;;;;618689;23;1364;-80
2023/08/15 00:31:54;;;;;;;3.63;2.53;;;;;;;;;;618414;23;1301;-80
2023/08/15 00:32:10;;;;;;;2.77;2.37;;;;;;;;;;619843;23;1313;-80
2023/08/15 00:32:25;;;;;;;3.50;2.33;;;;;;;;;;619360;23;1312;-80
2023/08/15 00:32:41;;;;;;;3.70;2.50;;;;;;;;;;622679;23;1544;-80
2023/08/15 00:32:57;;;;;;;4.73;2.70;;;;;;;;;;619428;23;1534;-80
2023/08/15 00:33:13;;;;;;;5.72;2.75;;;;;;;;;;619048;23;1441;-79
2023/08/15 00:33:28;;;;;;;4.30;2.60;;;;;;;;;;619156;23;820;-79
2023/08/15 00:33:44;;;;;;;4.10;2.57;;;;;;;;;;618921;23;1276;-79
2023/08/15 00:34:00;;;;;;;5.10;2.60;;;;;;;;;;615946;23;1247;-79
2023/08/15 00:34:15;;;;;;;3.97;2.40;;;;;;;;;;619306;23;1270;-79
2023/08/15 00:34:31;;;;;;;3.20;2.40;;;;;;;;;;619348;23;1332;-79
2023/08/15 00:34:47;;;;;;;2.83;2.20;;;;;;;;;;619204;23;1535;-80
2023/08/15 00:35:04;;;;;;;3.20;2.28;;;;;;;;;;620301;23;995;-80
2023/08/15 00:35:20;;;;;;;3.72;2.30;;;;;;;;;;621907;23;1372;-80
2023/08/15 00:35:35;;;;;;;3.42;2.40;;;;;;;;;;622014;23;1367;-80
2023/08/15 00:35:51;;;;;;;2.43;2.20;;;;;;;;;;618703;23;1387;-80
2023/08/15 00:36:07;;;;;;;2.70;2.15;;;;;;;;;;618666;23;1640;-80
2023/08/15 00:36:23;;;;;;;2.75;2.30;;;;;;;;;;615758;23;1399;-79
2023/08/15 00:36:38;;;;;;;2.40;2.20;;;;;;;;;;619281;23;1357;-80
2023/08/15 00:36:54;;;;;;;2.70;2.20;;;;;;;;;;622528;23;1337;-80
2023/08/15 00:37:10;;;;;;;3.28;2.30;;;;;;;;;;622371;23;1317;-80
2023/08/15 00:37:26;;;;;;;2.88;2.10;;;;;;;;;;625740;23;1285;-79
2023/08/15 00:37:42;;;;;;;2.47;2.00;;;;;;;;;;619988;23;1349;-80
2023/08/15 00:37:57;;;;;;;3.97;2.10;;;;;;;;;;622831;23;1318;-80
2023/08/15 00:38:13;;;;;;;5.78;2.28;;;;;;;;;;624957;23;1312;-79
2023/08/15 00:38:29;;;;;;;4.40;2.43;;;;;;;;;;622092;23;1415;-79
2023/08/15 00:38:45;;;;;;;4.03;2.47;;;;;;;;;;619217;23;1429;-79
2023/08/15 00:39:02;;;;;;;4.13;2.50;;;;;;;;;;619119;23;1374;-79
2023/08/15 00:39:18;;;;;;;3.65;2.40;;;;;;;;;;622781;23;1265;-80
2023/08/15 00:39:34;;;;;;;3.33;2.40;;;;;;;;;;619933;23;1346;-79
2023/08/15 00:39:49;;;;;;;3.53;2.53;;;;;;;;;;619822;23;1524;-80
2023/08/15 00:40:06;;;;;;;4.47;2.40;;;;;;;;;;620094;23;1338;-79
2023/08/15 00:40:21;;;;;;;5.03;2.60;;;;;;;;;;622726;23;1480;-79
2023/08/15 00:40:40;;;;;;;5.57;2.65;;;;;;;;;;619544;23;1317;-80
2023/08/15 00:40:56;;;;;;;5.25;2.70;;;;;;;;;;622783;23;1346;-80
2023/08/15 00:41:12;;;;;;;4.20;2.80;;;;;;;;;;619611;23;1334;-80
2023/08/15 00:41:28;;;;;;;4.97;2.70;;;;;;;;;;619045;23;1328;-80
2023/08/15 00:41:46;;;;;;;5.00;2.60;;;;;;;;;;620015;23;1915;-80
2023/08/15 00:42:01;;;;;;;4.60;2.72;;;;;;;;;;622630;23;1438;-80
2023/08/15 00:42:18;;;;;;;5.03;2.70;;;;;;;;;;622819;23;784;-80
2023/08/15 00:42:53;;;;;;;4.03;2.55;;;;;;;;;;620338;23;1308;-80
2023/08/15 00:43:10;;;;;;;3.72;2.67;;;;;;;;;;623987;23;1086;-80
2023/08/15 00:43:26;;;;;;;4.05;2.58;;;;;;;;;;619689;23;1487;-80
2023/08/15 00:43:42;;;;;;;3.75;2.40;;;;;;;;;;618463;23;1229;-80
2023/08/15 00:43:58;;;;;;;2.70;2.40;;;;;;;;;;621355;23;1065;-80
2023/08/15 00:44:14;;;;;;;2.43;2.20;;;;;;;;;;619678;23;1166;-79
2023/08/15 00:44:29;;;;;;;2.85;2.33;;;;;;;;;;621071;23;1312;-80
2023/08/15 00:44:45;;;;;;;3.42;2.42;;;;;;;;;;619029;23;1340;-79
2023/08/15 00:45:01;;;;;;;4.07;2.45;;;;;;;;;;619276;23;1329;-80
2023/08/15 00:45:20;;;;;;;4.23;2.60;;;;;;;;;;620128;23;868;-80
2023/08/15 00:45:39;;;;;;;5.60;2.85;;;;;;;;;;618132;23;1472;-79
2023/08/15 00:45:55;;;;;;;6.57;2.97;;;;;;;;;;619234;23;1415;-80
2023/08/15 00:46:11;;;;;;;4.60;2.75;;;;;;;;;;618855;23;1325;-79
2023/08/15 00:46:28;;;;;;;3.40;2.53;;;;;;;;;;621074;23;792;-80
2023/08/15 00:46:43;;;;;;;3.90;2.60;;;;;;;;;;624387;23;890;-80
2023/08/15 00:46:59;;;;;;;5.05;2.80;;;;;;;;;;621889;23;1428;-80
2023/08/15 00:47:15;;;;;;;4.77;2.60;;;;;;;;;;622132;23;947;-79
2023/08/15 00:47:31;;;;;;;4.38;2.53;;;;;;;;;;623807;23;1340;-80
2023/08/15 00:47:47;;;;;;;3.92;2.55;;;;;;;;;;623663;23;1332;-79
2023/08/15 00:48:03;;;;;;;3.37;2.40;;;;;;;;;;625166;23;1197;-80
2023/08/15 00:48:39;;;;;;;3.60;2.50;;;;;;;;;;624678;23;1198;-79
2023/08/15 00:48:56;;;;;;;3.88;2.40;;;;;;;;;;624514;23;1514;-80
2023/08/15 00:49:12;;;;;;;3.17;2.20;;;;;;;;;;621847;23;1352;-79
2023/08/15 00:49:28;;;;;;;4.03;2.42;;;;;;;;;;621420;23;1322;-79
2023/08/15 00:49:44;;;;;;;4.57;2.55;;;;;;;;;;621613;23;1274;-80
2023/08/15 00:50:01;;;;;;;4.97;2.50;;;;;;;;;;621697;23;1259;-80
2023/08/15 00:50:40;;;;;;;4.43;2.40;;;;;;;;;;621691;23;1376;-80
2023/08/15 00:51:16;;;;;;;4.32;2.58;;;;;;;;;;612920;23;1232;-79
2023/08/15 00:51:32;;;;;;;3.55;2.50;;;;;;;;;;621536;23;859;-80
2023/08/15 00:51:48;;;;;;;4.53;2.43;;;;;;;;;;618592;23;1209;-79
2023/08/15 00:52:04;;;;;;;5.25;2.45;;;;;;;;;;618724;23;1205;-79
2023/08/15 00:52:20;;;;;;;6.00;2.70;;;;;;;;;;616096;23;1287;-79
2023/08/15 00:52:35;;;;;;;5.15;2.70;;;;;;;;;;613049;23;1475;-80
2023/08/15 00:52:52;;;;;;;4.45;2.50;;;;;;;;;;613356;23;1243;-80
2023/08/15 00:53:08;;;;;;;4.22;2.50;;;;;;;;;;612842;23;931;-80
2023/08/15 00:53:24;;;;;;;4.10;2.50;;;;;;;;;;615977;23;1233;-79
2023/08/15 00:53:40;;;;;;;4.95;2.53;;;;;;;;;;618360;23;1364;-80
2023/08/15 00:53:55;;;;;;;5.50;2.80;;;;;;;;;;621373;23;1198;-80
2023/08/15 00:54:11;;;;;;;4.93;2.60;;;;;;;;;;623328;23;1050;-80
2023/08/15 00:54:27;;;;;;;4.97;2.42;;;;;;;;;;622771;23;1360;-79
2023/08/15 00:54:46;;;;;;;4.97;2.70;;;;;;;;;;621850;23;1220;-79
2023/08/15 00:55:02;;;;;;;3.60;2.60;;;;;;;;;;619018;23;1359;-80
2023/08/15 00:55:18;;;;;;;5.43;2.80;;;;;;;;;;616059;23;1319;-80
2023/08/15 00:55:35;;;;;;;5.77;2.90;;;;;;;;;;616721;23;1424;-80
2023/08/15 00:55:54;;;;;;;5.13;2.78;;;;;;;;;;613142;23;1259;-80
2023/08/15 00:56:10;;;;;;;5.05;2.67;;;;;;;;;;615807;23;1351;-80
2023/08/15 00:56:26;;;;;;;4.50;2.70;;;;;;;;;;618942;23;1276;-79
2023/08/15 00:56:52;;;;;;;5.60;2.80;;;;;;;;;;618701;23;1291;-79
2023/08/15 00:57:10;;;;;;;5.75;2.70;;;;;;;;;;621666;23;863;-79
2023/08/15 00:57:26;;;;;;;5.15;2.67;;;;;;;;;;624539;23;1430;-80
2023/08/15 00:57:41;;;;;;;4.83;2.67;;;;;;;;;;625458;23;1354;-80
2023/08/15 00:57:57;;;;;;;4.75;2.85;;;;;;;;;;625244;23;1243;-80
2023/08/15 00:58:14;;;;;;;4.78;2.80;;;;;;;;;;622195;23;1304;-80
2023/08/15 00:58:30;;;;;;;4.75;2.70;;;;;;;;;;621916;23;1242;-80
2023/08/15 00:58:46;;;;;;;4.38;2.78;;;;;;;;;;621716;23;1269;-80
2023/08/15 00:59:02;;;;;;;4.20;2.72;;;;;;;;;;621614;23;1191;-79
2023/08/15 00:59:18;;;;;;;4.10;2.70;;;;;;;;;;618844;23;1395;-80
2023/08/15 00:59:34;;;;;;;4.95;2.80;;;;;;;;;;622043;23;1401;-79
2023/08/15 00:59:50;;;;;;;4.85;2.90;;;;;;;;;;621536;23;1216;-80
2023/08/15 01:00:06;;;;;;;3.97;2.85;;;;;;;;;;622000;23;1095;-80
2023/08/15 01:00:22;;;;;;;3.50;3.03;;;;;;;;;;621836;23;1369;-80
2023/08/15 01:00:38;;;;;;;4.60;2.97;;;;;;;;;;623067;23;864;-80
2023/08/15 01:00:53;;;;;;;4.60;2.70;;;;;;;;;;622553;23;1402;-79
2023/08/15 01:01:14;;;;;;;4.57;2.70;;;;;;;;;;623121;23;851;-79
2023/08/15 01:01:31;;;;;;;4.40;2.70;;;;;;;;;;622493;23;1598;-79
2023/08/15 01:01:47;;;;;;;6.95;2.88;;;;;;;;;;620575;23;1989;-79
2023/08/15 01:02:03;;;;;;;6.23;2.83;;;;;;;;;;618610;23;1168;-79
2023/08/15 01:02:18;;;;;;;3.85;2.80;;;;;;;;;;616363;23;1258;-80
2023/08/15 01:02:34;;;;;;;3.70;2.83;;;;;;;;;;615924;23;1582;-80
2023/08/15 01:02:50;;;;;;;2.90;2.60;;;;;;;;;;619026;23;1337;-79
2023/08/15 01:03:09;;;;;;;3.53;2.50;;;;;;;;;;618173;23;1319;-79
2023/08/15 01:03:25;;;;;;;4.32;2.65;;;;;;;;;;621740;23;1542;-80
2023/08/15 01:03:41;;;;;;;4.90;2.80;;;;;;;;;;621771;23;1427;-79
2023/08/15 01:03:57;;;;;;;4.72;2.67;;;;;;;;;;618486;23;1376;-79
2023/08/15 01:04:14;;;;;;;5.40;2.70;;;;;;;;;;618458;23;871;-80
2023/08/15 01:04:31;;;;;;;5.93;2.90;;;;;;;;;;615305;23;1472;-80
2023/08/15 01:04:49;;;;;;;3.55;2.83;;;;;;;;;;615310;23;1316;-80
2023/08/15 01:05:05;;;;;;;4.35;2.80;;;;;;;;;;618367;23;1342;-79
2023/08/15 01:05:21;;;;;;;3.88;2.80;;;;;;;;;;618384;23;1398;-80
2023/08/15 01:05:38;;;;;;;3.47;2.80;;;;;;;;;;620652;23;879;-79
2023/08/15 01:05:55;;;;;;;4.25;2.70;;;;;;;;;;620627;23;1391;-79
2023/08/15 01:06:11;;;;;;;5.10;2.78;;;;;;;;;;618872;23;1429;-79
2023/08/15 01:06:30;;;;;;;5.55;2.90;;;;;;;;;;618709;23;1528;-79
2023/08/15 01:06:45;;;;;;;4.82;2.92;;;;;;;;;;618397;23;1397;-80
2023/08/15 01:07:04;;;;;;;4.57;3.00;;;;;;;;;;620587;23;1351;-79
2023/08/15 01:07:20;;;;;;;4.70;2.97;;;;;;;;;;618564;23;1204;-79
2023/08/15 01:07:36;;;;;;;4.17;2.90;;;;;;;;;;621877;23;1241;-79
2023/08/15 01:07:52;;;;;;;4.97;2.80;;;;;;;;;;621045;23;1240;-80
2023/08/15 01:08:08;;;;;;;5.82;2.80;;;;;;;;;;621729;23;968;-80
2023/08/15 01:08:24;;;;;;;5.47;2.80;;;;;;;;;;615989;23;1375;-79
2023/08/15 01:08:40;;;;;;;5.55;2.80;;;;;;;;;;619380;23;1383;-80
2023/08/15 01:09:16;;;;;;;4.55;2.80;;;;;;;;;;618737;23;1365;-79
2023/08/15 01:09:32;;;;;;;4.38;2.80;;;;;;;;;;618109;23;1383;-80
2023/08/15 01:09:48;;;;;;;4.60;2.88;;;;;;;;;;615211;23;1279;-80
2023/08/15 01:10:04;;;;;;;4.28;2.95;;;;;;;;;;615135;23;1313;-79
2023/08/15 01:10:19;;;;;;;4.22;3.00;;;;;;;;;;619216;23;1319;-80
2023/08/15 01:10:39;;;;;;;4.50;2.90;;;;;;;;;;619121;23;1226;-80
2023/08/15 01:10:54;;;;;;;3.78;2.63;;;;;;;;;;621590;23;1202;-80
2023/08/15 01:11:10;;;;;;;3.50;2.60;;;;;;;;;;620595;23;1549;-79
2023/08/15 01:11:36;;;;;;;4.20;2.60;;;;;;;;;;618068;23;1258;-80
2023/08/15 01:12:42;;;;;;;4.50;2.70;;;;;;;;;;615341;23;1530;-79
2023/08/15 01:13:15;;;;;;;4.43;2.90;;;;;;;;;;618004;23;1400;-80
2023/08/15 01:14:03;;;;;;;5.45;2.92;;;;;;;;;;622092;23;1354;-79
2023/08/15 01:14:25;;;;;;;3.70;2.90;;;;;;;;;;621329;23;1507;-80
2023/08/15 01:14:47;;;;;;;3.28;2.88;;;;;;;;;;621432;23;1027;-80
2023/08/15 01:15:09;;;;;;;4.70;2.85;;;;;;;;;;621274;23;1443;-80
2023/08/15 01:15:28;;;;;;;5.43;2.87;;;;;;;;;;620215;23;1267;-79
2023/08/15 01:15:49;;;;;;;4.00;3.00;;;;;;;;;;620145;23;1379;-80
2023/08/15 01:16:18;;;;;;;4.70;2.90;;;;;;;;;;618477;23;1439;-80
2023/08/15 01:16:43;;;;;;;5.25;2.95;;;;;;;;;;621457;23;851;-79
2023/08/15 01:17:00;;;;;;;5.30;3.00;;;;;;;;;;621523;23;1400;-79
2023/08/15 01:17:20;;;;;;;3.58;2.75;;;;;;;;;;619368;23;1460;-79
2023/08/15 01:18:11;;;;;;;4.72;2.70;;;;;;;;;;618890;23;1522;-79
2023/08/15 01:18:41;;;;;;;4.40;2.92;;;;;;;;;;614024;23;1383;-80
2023/08/15 01:19:05;;;;;;;3.15;2.65;;;;;;;;;;615634;23;884;-80
2023/08/15 01:19:34;;;;;;;3.33;2.60;;;;;;;;;;616233;23;1314;-80
2023/08/15 01:19:52;;;;;;;4.03;2.83;;;;;;;;;;615365;23;1394;-80
2023/08/15 01:20:11;;;;;;;4.45;2.80;;;;;;;;;;615451;23;1309;-80
2023/08/15 01:20:47;;;;;;;4.93;2.90;;;;;;;;;;615485;23;1408;-80
2023/08/15 01:21:04;;;;;;;4.75;2.83;;;;;;;;;;619612;23;1383;-79
2023/08/15 01:21:25;;;;;;;5.28;2.80;;;;;;;;;;616109;23;1396;-80
2023/08/15 01:21:49;;;;;;;3.85;2.70;;;;;;;;;;616892;23;1991;-80
2023/08/15 01:22:15;;;;;;;4.43;2.80;;;;;;;;;;616163;23;1269;-79
2023/08/15 01:22:35;;;;;;;4.00;2.70;;;;;;;;;;618670;23;1163;-79
2023/08/15 01:22:53;;;;;;;3.90;2.72;;;;;;;;;;615606;23;1336;-80
2023/08/15 01:23:12;;;;;;;3.92;2.70;;;;;;;;;;616253;23;1284;-79
2023/08/15 01:23:55;;;;;;;4.95;2.88;;;;;;;;;;615651;23;1253;-80
2023/08/15 01:24:11;;;;;;;4.60;2.78;;;;;;;;;;610730;24;1436;-80
2023/08/15 01:24:28;;;;;;;4.53;2.80;;;;;;;;;;612605;23;868;-79
2023/08/15 01:24:45;;;;;;;3.45;2.70;;;;;;;;;;611135;24;1441;-79
2023/08/15 01:25:00;;;;;;;4.00;2.70;;;;;;;;;;613741;23;1543;-79
2023/08/15 01:25:16;;;;;;;4.53;2.85;;;;;;;;;;616633;23;758;-79
2023/08/15 01:25:40;;;;;;;4.82;2.92;;;;;;;;;;615317;23;1488;-80
2023/08/15 01:25:55;;;;;;;5.03;2.90;;;;;;;;;;616045;23;1516;-80
2023/08/15 01:26:12;;;;;;;5.15;2.90;;;;;;;;;;615577;23;1329;-80
2023/08/15 01:26:27;;;;;;;4.80;2.70;;;;;;;;;;616206;23;1404;-80
2023/08/15 01:26:43;;;;;;;3.90;2.75;;;;;;;;;;618964;23;1458;-79
2023/08/15 01:26:59;;;;;;;3.53;2.70;;;;;;;;;;619100;23;809;-80
2023/08/15 01:27:15;;;;;;;3.77;2.60;;;;;;;;;;615757;23;1221;-80
2023/08/15 01:27:30;;;;;;;3.25;2.60;;;;;;;;;;619342;23;1335;-80
2023/08/15 01:27:46;;;;;;;3.70;2.60;;;;;;;;;;616161;23;1402;-79
2023/08/15 01:28:02;;;;;;;3.73;2.50;;;;;;;;;;616388;23;1455;-80
2023/08/15 01:28:18;;;;;;;3.45;2.50;;;;;;;;;;616249;23;1299;-80
2023/08/15 01:28:33;;;;;;;4.60;2.60;;;;;;;;;;613284;23;1213;-80
2023/08/15 01:28:49;;;;;;;4.45;2.78;;;;;;;;;;616386;23;1261;-79
2023/08/15 01:29:06;;;;;;;3.53;2.80;;;;;;;;;;615801;23;1486;-80
2023/08/15 01:29:22;;;;;;;4.75;2.80;;;;;;;;;;615944;23;1602;-80
2023/08/15 01:29:38;;;;;;;5.43;2.80;;;;;;;;;;616577;23;1158;-79
2023/08/15 01:29:55;;;;;;;4.35;2.90;;;;;;;;;;615977;23;1214;-79
2023/08/15 01:30:13;;;;;;;4.03;3.05;;;;;;;;;;616283;23;1417;-79
2023/08/15 01:30:28;;;;;;;4.00;3.03;;;;;;;;;;615937;23;1475;-80
2023/08/15 01:30:54;;;;;;;4.47;2.97;;;;;;;;;;615892;23;1400;-80
2023/08/15 01:31:36;;;;;;;4.38;2.88;;;;;;;;;;613268;24;1190;-80
2023/08/15 01:32:08;;;;;;;2.85;2.47;;;;;;;;;;607344;24;1439;-79
2023/08/15 01:32:58;;;;;;;3.85;2.65;;;;;;;;;;615259;23;1282;-80
2023/08/15 01:33:30;;;;;;;3.60;2.53;;;;;;;;;;614780;23;1363;-79
2023/08/15 01:34:06;;;;;;;3.10;2.70;;;;;;;;;;613047;24;1335;-79
2023/08/15 01:34:28;;;;;;;3.35;2.55;;;;;;;;;;618448;23;1420;-79
2023/08/15 01:34:54;;;;;;;5.68;2.83;;;;;;;;;;617185;23;1337;-79
2023/08/15 01:35:31;;;;;;;5.43;2.78;;;;;;;;;;615301;23;1254;-79
2023/08/15 01:35:55;;;;;;;3.65;2.60;;;;;;;;;;616639;23;1523;-80
2023/08/15 01:36:19;;;;;;;4.30;2.60;;;;;;;;;;616789;23;1555;-79
2023/08/15 01:36:43;;;;;;;4.55;2.78;;;;;;;;;;619532;23;1443;-80
2023/08/15 01:37:09;;;;;;;4.00;2.80;;;;;;;;;;616538;23;1480;-80
2023/08/15 01:37:30;;;;;;;4.72;2.65;;;;;;;;;;619950;23;1295;-79
2023/08/15 01:38:09;;;;;;;;;;;;;;;;;;;;;
2023/08/15 01:38:45;;;;;;;5.05;2.70;;;;;;;;;;622539;23;1078;-79
2023/08/15 01:39:04;;;;;;;4.47;2.80;;;;;;;;;;622024;23;1456;-80
2023/08/15 01:39:28;;;;;;;8.38;2.95;;;;;;;;;;622302;23;1293;-80
2023/08/15 01:39:54;;;;;;;6.40;2.92;;;;;;;;;;625050;23;1292;-80
2023/08/15 01:40:14;;;;;;;6.05;2.95;;;;;;;;;;625167;23;1470;-80
2023/08/15 01:40:52;;;;;;;4.88;2.80;;;;;;;;;;622589;23;1346;-80
2023/08/15 01:41:09;;;;;;;4.30;2.80;;;;;;;;;;615428;23;1398;-79
2023/08/15 01:41:32;;;;;;;4.65;2.70;;;;;;;;;;618501;23;1209;-80
2023/08/15 01:41:50;;;;;;;4.65;2.60;;;;;;;;;;616434;23;1923;-80
2023/08/15 01:42:08;;;;;;;3.00;2.53;;;;;;;;;;618084;23;1375;-79
2023/08/15 01:42:28;;;;;;;3.88;2.65;;;;;;;;;;619556;23;895;-79
2023/08/15 01:42:45;;;;;;;3.95;2.90;;;;;;;;;;616620;23;1281;-79
2023/08/15 01:43:02;;;;;;;5.07;2.78;;;;;;;;;;616038;23;1352;-79
2023/08/15 01:43:22;;;;;;;5.00;2.67;;;;;;;;;;612991;23;1179;-79
2023/08/15 01:43:39;;;;;;;3.67;2.63;;;;;;;;;;614072;23;1293;-80
2023/08/15 01:43:56;;;;;;;3.15;2.70;;;;;;;;;;616638;23;1332;-79
2023/08/15 01:44:13;;;;;;;3.47;2.77;;;;;;;;;;616180;23;1300;-80
2023/08/15 01:44:30;;;;;;;3.58;2.60;;;;;;;;;;619517;23;1435;-80
2023/08/15 01:44:47;;;;;;;3.60;2.45;;;;;;;;;;619091;23;1455;-80
2023/08/15 01:45:03;;;;;;;3.33;2.40;;;;;;;;;;616493;23;1188;-80
2023/08/15 01:45:19;;;;;;;2.72;2.30;;;;;;;;;;619071;23;1257;-79
2023/08/15 01:45:35;;;;;;;3.15;2.47;;;;;;;;;;618661;23;1536;-79
2023/08/15 01:45:52;;;;;;;4.00;2.60;;;;;;;;;;621940;23;1439;-80
2023/08/15 01:46:09;;;;;;;4.15;2.67;;;;;;;;;;621646;23;1367;-80
2023/08/15 01:46:25;;;;;;;4.13;2.70;;;;;;;;;;618591;23;1401;-79
2023/08/15 01:46:41;;;;;;;4.10;2.60;;;;;;;;;;618927;23;799;-79
2023/08/15 01:46:59;;;;;;;3.63;2.60;;;;;;;;;;619510;23;1397;-80
2023/08/15 01:47:15;;;;;;;2.92;2.40;;;;;;;;;;619827;23;1297;-80
2023/08/15 01:47:35;;;;;;;3.43;2.53;;;;;;;;;;619101;23;1296;-80
2023/08/15 01:47:51;;;;;;;4.00;2.80;;;;;;;;;;616278;23;1534;-79
2023/08/15 01:48:07;;;;;;;3.83;2.80;;;;;;;;;;613357;23;1142;-80
2023/08/15 01:48:43;;;;;;;3.35;2.88;;;;;;;;;;612871;23;1324;-80
2023/08/15 01:49:02;;;;;;;4.10;2.75;;;;;;;;;;612749;23;1547;-79
2023/08/15 01:49:21;;;;;;;5.35;2.97;;;;;;;;;;613294;23;1116;-79
2023/08/15 01:49:36;;;;;;;5.38;2.90;;;;;;;;;;613736;23;1399;-79
2023/08/15 01:49:53;;;;;;;5.60;2.85;;;;;;;;;;613382;23;1329;-80
2023/08/15 01:50:09;;;;;;;5.10;2.60;;;;;;;;;;611874;23;1439;-80
2023/08/15 01:50:24;;;;;;;4.22;2.60;;;;;;;;;;613521;23;1341;-80
2023/08/15 01:50:40;;;;;;;4.27;2.93;;;;;;;;;;616742;23;977;-79
2023/08/15 01:50:55;;;;;;;5.50;3.00;;;;;;;;;;614868;23;1233;-80
2023/08/15 01:51:11;;;;;;;5.27;2.73;;;;;;;;;;611716;23;1250;-80
2023/08/15 01:51:27;;;;;;;4.38;2.72;;;;;;;;;;614443;23;1483;-79
2023/08/15 01:51:46;;;;;;;4.97;2.85;;;;;;;;;;615039;23;1367;-79
2023/08/15 01:52:02;;;;;;;4.45;2.90;;;;;;;;;;618257;23;1464;-79
2023/08/15 01:52:18;;;;;;;4.82;2.95;;;;;;;;;;618590;23;1217;-80
2023/08/15 01:52:35;;;;;;;5.00;2.88;;;;;;;;;;619039;23;1292;-79
2023/08/15 01:52:53;;;;;;;5.50;2.90;;;;;;;;;;619631;23;1371;-81
2023/08/15 01:53:11;;;;;;;4.53;2.90;;;;;;;;;;618819;23;1447;-79